createdAt,value
2024-02-14T00:00:16.783Z,101670.31
2024-02-14T00:02:50.664Z,101678.13
2024-02-14T00:05:21.146Z,101667.78
2024-02-14T00:07:51.558Z,101677.31
2024-02-14T00:10:21.907Z,101678.88
2024-02-14T00:12:52.732Z,101678.88
2024-02-14T00:15:23.006Z,101680.69
2024-02-14T00:17:54.524Z,101681.63
2024-02-14T00:20:26.061Z,101691.13
2024-02-14T00:22:56.487Z,101695.44
2024-02-14T00:25:26.523Z,101692.84
2024-02-14T00:27:57.045Z,101693.69
2024-02-14T00:30:30.054Z,101693.59
2024-02-14T00:33:01.612Z,101703.00
2024-02-14T00:35:32.164Z,101703.00
2024-02-14T00:38:02.597Z,101708.88
2024-02-14T00:40:33.532Z,101698.47
2024-02-14T00:43:04.193Z,101702.84
2024-02-14T00:45:34.332Z,101702.06
2024-02-14T00:48:05.189Z,101699.44
2024-02-14T00:50:35.754Z,101698.66
2024-02-14T00:53:06.119Z,101695.25
2024-02-14T00:55:36.341Z,101706.34
2024-02-14T00:58:07.188Z,101702.09
2024-02-14T01:00:37.481Z,101706.34
2024-02-14T01:03:09.087Z,101702.06
2024-02-14T01:05:39.769Z,101704.75
2024-02-14T01:08:10.319Z,101707.34
2024-02-14T01:10:40.543Z,101708.34
2024-02-14T01:13:10.966Z,101712.75
2024-02-14T01:15:41.246Z,101711.06
2024-02-14T01:18:11.897Z,101694.63
2024-02-14T01:20:42.269Z,101694.63
2024-02-14T01:23:12.771Z,101697.22
2024-02-14T01:25:43.753Z,101703.13
2024-02-14T01:28:14.164Z,101701.25
2024-02-14T01:30:44.765Z,101706.59
2024-02-14T01:33:17.516Z,101711.88
2024-02-14T01:35:47.604Z,101710.22
2024-02-14T01:38:18.101Z,101711.81
2024-02-14T01:40:50.873Z,101703.94
2024-02-14T01:43:21.936Z,101702.28
2024-02-14T01:45:52.261Z,101710.94
2024-02-14T01:48:23.191Z,101717.75
2024-02-14T01:50:53.633Z,101715.09
2024-02-14T01:53:24.634Z,101713.28
2024-02-14T01:55:55.082Z,101710.72
2024-02-14T01:58:25.629Z,101713.38
2024-02-14T02:00:59.869Z,101708.25
2024-02-14T02:03:34.283Z,101714.34
2024-02-14T02:06:07.384Z,101719.53
2024-02-14T02:08:38.208Z,101724.69
2024-02-14T02:11:08.545Z,101729.06
2024-02-14T02:13:40.565Z,101708.25
2024-02-14T02:16:11.067Z,101719.53
2024-02-14T02:18:41.577Z,101715.28
2024-02-14T02:21:14.229Z,101703.09
2024-02-14T02:23:46.460Z,101707.28
2024-02-14T02:26:16.682Z,101727.03
2024-02-14T02:28:47.942Z,101730.59
2024-02-14T02:31:18.212Z,101721.19
2024-02-14T02:33:48.657Z,101734.22
2024-02-14T02:36:18.854Z,101735.97
2024-02-14T02:38:49.983Z,101728.25
2024-02-14T02:41:20.107Z,101722.97
2024-02-14T02:43:51.780Z,101729.06
2024-02-14T02:46:23.030Z,101728.13
2024-02-14T02:48:56.153Z,101729.97
2024-02-14T02:51:26.334Z,101731.66
2024-02-14T02:53:56.664Z,101735.03
2024-02-14T02:56:28.908Z,101736.72
2024-02-14T02:58:59.350Z,101732.34
2024-02-14T03:01:32.012Z,101736.66
2024-02-14T03:04:03.136Z,101739.28
2024-02-14T03:06:33.545Z,101728.97
2024-02-14T03:09:04.171Z,101716.88
2024-02-14T03:11:34.496Z,101726.50
2024-02-14T03:14:05.130Z,101730.03
2024-02-14T03:16:35.316Z,101729.97
2024-02-14T03:19:06.335Z,101726.38
2024-02-14T03:21:36.735Z,101735.84
2024-02-14T03:24:10.774Z,101732.41
2024-02-14T03:26:41.072Z,101729.94
2024-02-14T03:29:11.563Z,101725.44
2024-02-14T03:31:41.757Z,101726.13
2024-02-14T03:34:12.419Z,101734.75
2024-02-14T03:36:44.042Z,101740.78
2024-02-14T03:39:14.569Z,101754.56
2024-02-14T03:41:44.618Z,101753.50
2024-02-14T03:44:15.168Z,101753.34
2024-02-14T03:46:45.322Z,101758.47
2024-02-14T03:49:16.045Z,101762.56
2024-02-14T03:51:47.359Z,101759.13
2024-02-14T03:54:21.278Z,101752.34
2024-02-14T03:56:53.656Z,101747.91
2024-02-14T03:59:26.373Z,101750.44
2024-02-14T04:01:56.818Z,101750.56
2024-02-14T04:04:27.900Z,101752.41
2024-02-14T04:06:59.756Z,101753.38
2024-02-14T04:09:30.378Z,101760.34
2024-02-14T04:12:00.558Z,101763.63
2024-02-14T04:14:31.072Z,101767.84
2024-02-14T04:17:01.556Z,101762.63
2024-02-14T04:19:32.188Z,101762.56
2024-02-14T04:22:02.684Z,101760.78
2024-02-14T04:24:35.449Z,101756.34
2024-02-14T04:27:06.230Z,101756.22
2024-02-14T04:29:37.261Z,101760.34
2024-02-14T04:32:07.543Z,101761.13
2024-02-14T04:34:40.183Z,101760.22
2024-02-14T04:37:15.171Z,101758.41
2024-02-14T04:39:45.921Z,101770.41
2024-02-14T04:42:16.358Z,101757.38
2024-02-14T04:44:47.132Z,101757.38
2024-02-14T04:47:17.145Z,101752.06
2024-02-14T04:49:47.597Z,101753.75
2024-02-14T04:52:17.725Z,101760.72
2024-02-14T04:54:48.471Z,101751.94
2024-02-14T04:57:21.214Z,101755.41
2024-02-14T04:59:51.627Z,101758.03
2024-02-14T05:02:22.285Z,101759.78
2024-02-14T05:04:52.719Z,101759.06
2024-02-14T05:07:23.354Z,101754.78
2024-02-14T05:09:56.498Z,101754.78
2024-02-14T05:12:26.985Z,101752.16
2024-02-14T05:14:57.367Z,101752.97
2024-02-14T05:17:27.614Z,101761.59
2024-02-14T05:19:58.012Z,101758.22
2024-02-14T05:22:28.888Z,101763.38
2024-02-14T05:24:59.420Z,101752.97
2024-02-14T05:27:29.609Z,101746.03
2024-02-14T05:30:00.301Z,101759.78
2024-02-14T05:32:30.376Z,101756.34
2024-02-14T05:35:01.623Z,101764.25
2024-02-14T05:37:32.111Z,101766.16
2024-02-14T05:40:02.356Z,101766.28
2024-02-14T05:42:32.692Z,101766.19
2024-02-14T05:45:04.705Z,101771.34
2024-02-14T05:47:35.378Z,101769.66
2024-02-14T05:50:06.772Z,101771.25
2024-02-14T05:52:36.987Z,101779.75
2024-02-14T05:55:09.734Z,101776.16
2024-02-14T05:57:39.970Z,101778.69
2024-02-14T06:00:12.392Z,101776.09
2024-02-14T06:02:43.070Z,101781.34
2024-02-14T06:05:14.483Z,101785.78
2024-02-14T06:07:48.221Z,101784.91
2024-02-14T06:10:19.311Z,101781.41
2024-02-14T06:12:50.318Z,101794.38
2024-02-14T06:15:20.990Z,101790.19
2024-02-14T06:17:51.386Z,101798.81
2024-02-14T06:20:23.695Z,101790.34
2024-02-14T06:23:01.781Z,101793.00
2024-02-14T06:25:35.888Z,101794.00
2024-02-14T06:28:06.323Z,101794.06
2024-02-14T06:30:36.900Z,101794.19
2024-02-14T06:33:07.392Z,101790.88
2024-02-14T06:35:39.284Z,101790.09
2024-02-14T06:38:09.587Z,101785.84
2024-02-14T06:40:40.072Z,101794.47
2024-02-14T06:43:10.304Z,101782.41
2024-02-14T06:45:40.693Z,101785.03
2024-02-14T06:48:11.097Z,101789.41
2024-02-14T06:50:41.675Z,101789.41
2024-02-14T06:53:11.760Z,101782.41
2024-02-14T06:55:42.232Z,101797.84
2024-02-14T06:58:12.518Z,101794.38
2024-02-14T07:00:43.451Z,101790.88
2024-02-14T07:03:13.662Z,101792.75
2024-02-14T07:05:44.275Z,101793.66
2024-02-14T07:08:15.709Z,101801.63
2024-02-14T07:10:45.983Z,101804.31
2024-02-14T07:13:16.341Z,101803.59
2024-02-14T07:15:46.849Z,101795.09
2024-02-14T07:18:17.064Z,101796.06
2024-02-14T07:20:47.570Z,101801.25
2024-02-14T07:23:19.683Z,101792.69
2024-02-14T07:25:50.676Z,101791.91
2024-02-14T07:28:20.938Z,101802.31
2024-02-14T07:30:51.546Z,101804.09
2024-02-14T07:33:22.178Z,101806.66
2024-02-14T07:35:52.558Z,101807.53
2024-02-14T07:38:24.229Z,101801.56
2024-02-14T07:40:54.533Z,101808.47
2024-02-14T07:43:24.759Z,101806.94
2024-02-14T07:45:55.280Z,101804.53
2024-02-14T07:48:25.686Z,101811.72
2024-02-14T07:50:57.239Z,101809.25
2024-02-14T07:53:27.668Z,101805.75
2024-02-14T07:55:58.538Z,101809.25
2024-02-14T07:58:28.424Z,101798.00
2024-02-14T08:00:58.698Z,101810.94
2024-02-14T08:03:28.927Z,101795.50
2024-02-14T08:05:59.865Z,101803.41
2024-02-14T08:08:30.151Z,101805.13
2024-02-14T08:11:00.544Z,101798.09
2024-02-14T08:13:30.791Z,101806.84
2024-02-14T08:16:01.486Z,101815.59
2024-02-14T08:18:31.629Z,101814.84
2024-02-14T08:21:02.350Z,101807.94
2024-02-14T08:23:34.079Z,101813.81
2024-02-14T08:26:11.289Z,101806.09
2024-02-14T08:28:41.394Z,101802.69
2024-02-14T08:31:13.005Z,101800.16
2024-02-14T08:33:43.673Z,101811.25
2024-02-14T08:36:14.269Z,101809.53
2024-02-14T08:38:44.387Z,101809.53
2024-02-14T08:41:15.426Z,101806.00
2024-02-14T08:43:47.666Z,101797.41
2024-02-14T08:46:19.327Z,101801.94
2024-02-14T08:48:50.693Z,101805.47
2024-02-14T08:51:21.757Z,101801.09
2024-02-14T08:53:56.073Z,101801.91
2024-02-14T08:56:26.634Z,101802.88
2024-02-14T08:58:56.677Z,101809.94
2024-02-14T09:01:27.516Z,101810.97
2024-02-14T09:03:58.236Z,101810.28
2024-02-14T09:06:28.736Z,101809.47
2024-02-14T09:08:59.022Z,101810.44
2024-02-14T09:11:29.419Z,101808.78
2024-02-14T09:14:05.668Z,101804.50
2024-02-14T09:16:36.248Z,101821.84
2024-02-14T09:19:08.734Z,101815.00
2024-02-14T09:21:39.837Z,101816.94
2024-02-14T09:24:10.021Z,101828.38
2024-02-14T09:26:41.325Z,101824.25
2024-02-14T09:29:15.668Z,101827.03
2024-02-14T09:31:48.613Z,101817.69
2024-02-14T09:34:20.773Z,101820.31
2024-02-14T09:36:51.204Z,101830.81
2024-02-14T09:39:21.558Z,101829.28
2024-02-14T09:42:03.383Z,101829.44
2024-02-14T09:44:35.865Z,101831.34
2024-02-14T09:47:08.409Z,101814.91
2024-02-14T09:49:40.900Z,101820.19
2024-02-14T09:52:13.313Z,101827.06
2024-02-14T09:54:44.818Z,101819.28
2024-02-14T09:57:17.851Z,101821.97
2024-02-14T09:59:49.376Z,101814.28
2024-02-14T10:02:19.590Z,101827.44
2024-02-14T10:04:49.793Z,101824.84
2024-02-14T10:07:20.303Z,101823.13
2024-02-14T10:09:50.446Z,101819.69
2024-02-14T10:12:21.449Z,101818.06
2024-02-14T10:14:53.492Z,101829.47
2024-02-14T10:17:24.010Z,101820.88
2024-02-14T10:20:06.427Z,101823.56
2024-02-14T10:22:38.074Z,101821.09
2024-02-14T10:25:11.429Z,101819.44
2024-02-14T10:27:42.087Z,101821.31
2024-02-14T10:30:12.707Z,101819.63
2024-02-14T10:32:48.838Z,101820.59
2024-02-14T10:35:21.466Z,101823.13
2024-02-14T10:37:54.214Z,101815.34
2024-02-14T10:40:25.468Z,101817.16
2024-02-14T10:42:59.226Z,101812.91
2024-02-14T10:45:29.394Z,101803.44
2024-02-14T10:48:02.163Z,101802.59
2024-02-14T10:50:36.032Z,101802.66
2024-02-14T10:53:08.355Z,101795.75
2024-02-14T10:55:42.364Z,101796.66
2024-02-14T10:58:15.468Z,101795.81
2024-02-14T11:00:47.726Z,101798.56
2024-02-14T11:03:18.553Z,101804.78
2024-02-14T11:05:51.056Z,101794.53
2024-02-14T11:08:23.887Z,101796.28
2024-02-14T11:10:58.045Z,101793.84
2024-02-14T11:13:30.503Z,101791.25
2024-02-14T11:16:05.822Z,101792.97
2024-02-14T11:18:37.500Z,101783.44
2024-02-14T11:21:18.449Z,101792.13
2024-02-14T11:23:57.787Z,101785.38
2024-02-14T11:26:29.303Z,101786.31
2024-02-14T11:29:05.081Z,101769.84
2024-02-14T11:31:38.939Z,101783.84
2024-02-14T11:34:10.104Z,101773.41
2024-02-14T11:36:43.506Z,101772.63
2024-02-14T11:39:15.294Z,101776.22
2024-02-14T11:41:46.051Z,101775.50
2024-02-14T11:44:16.731Z,101775.63
2024-02-14T11:46:47.607Z,101771.25
2024-02-14T11:49:18.537Z,101764.22
2024-02-14T11:51:49.263Z,101771.97
2024-02-14T11:54:21.621Z,101768.59
2024-02-14T11:56:51.929Z,101764.28
2024-02-14T11:59:24.311Z,101768.66
2024-02-14T12:01:55.980Z,101761.75
2024-02-14T12:04:26.855Z,101755.66
2024-02-14T12:06:57.309Z,101760.84
2024-02-14T12:09:30.038Z,101755.59
2024-02-14T12:12:01.162Z,101753.97
2024-02-14T12:14:33.937Z,101755.84
2024-02-14T12:17:04.427Z,101755.84
2024-02-14T12:19:36.151Z,101751.53
2024-02-14T12:22:18.569Z,101749.00
2024-02-14T12:24:49.409Z,101749.09
2024-02-14T12:27:20.390Z,101750.88
2024-02-14T12:29:52.483Z,101745.72
2024-02-14T12:32:22.714Z,101748.38
2024-02-14T12:34:53.107Z,101750.19
2024-02-14T12:37:23.469Z,101745.06
2024-02-14T12:39:54.947Z,101739.81
2024-02-14T12:42:26.885Z,101736.44
2024-02-14T12:44:57.747Z,101735.59
2024-02-14T12:47:33.067Z,101729.50
2024-02-14T12:50:04.197Z,101735.59
2024-02-14T12:52:35.426Z,101726.00
2024-02-14T12:55:05.902Z,101738.16
2024-02-14T12:57:36.187Z,101730.34
2024-02-14T13:00:09.931Z,101731.31
2024-02-14T13:02:40.427Z,101730.44
2024-02-14T13:05:11.012Z,101734.72
2024-02-14T13:07:42.415Z,101732.06
2024-02-14T13:10:13.007Z,101737.25
2024-02-14T13:12:44.838Z,101731.16
2024-02-14T13:15:15.458Z,101732.88
2024-02-14T13:17:46.357Z,101731.03
2024-02-14T13:20:17.609Z,101724.97
2024-02-14T13:22:47.774Z,101728.41
2024-02-14T13:25:18.444Z,101733.63
2024-02-14T13:27:48.897Z,101730.19
2024-02-14T13:30:20.148Z,101728.53
2024-02-14T13:32:50.737Z,101725.06
2024-02-14T13:35:21.354Z,101729.44
2024-02-14T13:37:51.564Z,101727.69
2024-02-14T13:40:22.127Z,101725.13
2024-02-14T13:42:52.865Z,101732.13
2024-02-14T13:45:24.111Z,101725.25
2024-02-14T13:48:08.677Z,101725.28
2024-02-14T13:50:39.498Z,101720.91
2024-02-14T13:53:09.904Z,101715.69
2024-02-14T13:55:40.980Z,101717.41
2024-02-14T13:58:16.465Z,101720.88
2024-02-14T14:00:46.981Z,101717.44
2024-02-14T14:03:17.081Z,101721.69
2024-02-14T14:05:47.671Z,101725.16
2024-02-14T14:08:17.932Z,101722.50
2024-02-14T14:10:48.420Z,101736.25
2024-02-14T14:13:18.576Z,101729.31
2024-02-14T14:15:49.055Z,101736.28
2024-02-14T14:18:19.462Z,101738.88
2024-02-14T14:20:50.022Z,101732.78
2024-02-14T14:23:20.107Z,101737.97
2024-02-14T14:25:50.939Z,101734.41
2024-02-14T14:28:25.716Z,101735.31
2024-02-14T14:30:56.370Z,101733.63
2024-02-14T14:33:26.990Z,101738.81
2024-02-14T14:35:57.726Z,101739.63
2024-02-14T14:38:27.909Z,101736.16
2024-02-14T14:40:58.544Z,101739.69
2024-02-14T14:43:29.128Z,101740.53
2024-02-14T14:45:59.535Z,101746.56
2024-02-14T14:48:29.929Z,101743.03
2024-02-14T14:51:00.669Z,101738.47
2024-02-14T14:53:31.850Z,101746.25
2024-02-14T14:56:02.550Z,101732.28
2024-02-14T14:58:35.280Z,101735.69
2024-02-14T15:01:06.084Z,101735.66
2024-02-14T15:03:36.535Z,101738.22
2024-02-14T15:06:07.288Z,101733.84
2024-02-14T15:08:38.515Z,101732.16
2024-02-14T15:11:09.175Z,101730.38
2024-02-14T15:13:39.640Z,101730.38
2024-02-14T15:16:10.185Z,101723.38
2024-02-14T15:18:44.934Z,101722.47
2024-02-14T15:21:15.662Z,101726.84
2024-02-14T15:23:45.951Z,101726.88
2024-02-14T15:26:18.402Z,101732.00
2024-02-14T15:28:56.934Z,101734.59
2024-02-14T15:31:46.239Z,101732.81
2024-02-14T15:34:16.561Z,101731.88
2024-02-14T15:36:46.945Z,101735.28
2024-02-14T15:39:17.220Z,101740.50
2024-02-14T15:41:47.642Z,101733.53
2024-02-14T15:44:18.364Z,101734.38
2024-02-14T15:46:48.948Z,101743.78
2024-02-14T15:49:19.196Z,101742.03
2024-02-14T15:51:51.677Z,101740.28
2024-02-14T15:54:21.736Z,101748.00
2024-02-14T15:56:52.355Z,101750.69
2024-02-14T15:59:22.471Z,101747.19
2024-02-14T16:01:53.187Z,101746.28
2024-02-14T16:04:23.357Z,101740.16
2024-02-14T16:06:54.216Z,101751.44
2024-02-14T16:09:24.514Z,101749.66
2024-02-14T16:11:54.858Z,101747.03
2024-02-14T16:14:28.481Z,101740.03
2024-02-14T16:17:00.728Z,101745.31
2024-02-14T16:19:30.723Z,101753.09
2024-02-14T16:22:10.158Z,101752.25
2024-02-14T16:24:48.641Z,101748.78
2024-02-14T16:27:19.233Z,101748.69
2024-02-14T16:29:49.727Z,101751.28
2024-02-14T16:32:20.615Z,101754.72
2024-02-14T16:34:50.834Z,101753.00
2024-02-14T16:37:21.371Z,101763.44
2024-02-14T16:39:51.662Z,101758.28
2024-02-14T16:42:23.598Z,101766.16
2024-02-14T16:44:54.715Z,101766.97
2024-02-14T16:47:26.403Z,101766.97
2024-02-14T16:49:56.917Z,101773.88
2024-02-14T16:52:27.731Z,101762.50
2024-02-14T16:54:57.796Z,101764.25
2024-02-14T16:57:28.349Z,101771.97
2024-02-14T16:59:58.771Z,101774.56
2024-02-14T17:02:29.310Z,101777.16
2024-02-14T17:04:59.397Z,101778.94
2024-02-14T17:07:30.041Z,101785.00
2024-02-14T17:10:01.043Z,101772.94
2024-02-14T17:12:32.145Z,101781.59
2024-02-14T17:15:02.875Z,101784.13
2024-02-14T17:17:33.741Z,101778.94
2024-02-14T17:20:04.405Z,101775.50
2024-02-14T17:22:34.686Z,101780.75
2024-02-14T17:25:06.695Z,101773.75
2024-02-14T17:27:37.290Z,101765.91
2024-02-14T17:30:09.942Z,101781.53
2024-02-14T17:32:47.210Z,101788.44
2024-02-14T17:35:17.764Z,101790.13
2024-02-14T17:37:48.271Z,101789.28
2024-02-14T17:40:18.358Z,101789.34
2024-02-14T17:42:48.890Z,101785.91
2024-02-14T17:45:19.801Z,101794.53
2024-02-14T17:47:50.672Z,101792.78
2024-02-14T17:50:20.911Z,101784.16
2024-02-14T17:52:51.497Z,101791.94
2024-02-14T17:55:21.623Z,101775.28
2024-02-14T17:57:53.308Z,101785.69
2024-02-14T18:00:24.147Z,101779.69
2024-02-14T18:02:54.810Z,101780.53
2024-02-14T18:05:25.070Z,101778.81
2024-02-14T18:07:55.576Z,101778.00
2024-02-14T18:10:27.155Z,101770.16
2024-02-14T18:12:58.647Z,101760.56
2024-02-14T18:15:28.620Z,101768.44
2024-02-14T18:17:59.893Z,101770.16
2024-02-14T18:20:30.892Z,101768.41
2024-02-14T18:23:02.939Z,101768.41
2024-02-14T18:25:33.713Z,101766.59
2024-02-14T18:28:04.739Z,101763.13
2024-02-14T18:30:34.978Z,101758.69
2024-02-14T18:33:05.749Z,101763.94
2024-02-14T18:35:36.136Z,101765.66
2024-02-14T18:38:09.804Z,101768.31
2024-02-14T18:40:40.187Z,101762.22
2024-02-14T18:43:10.632Z,101771.78
2024-02-14T18:45:41.360Z,101766.59
2024-02-14T18:48:12.794Z,101764.81
2024-02-14T18:50:43.134Z,101764.91
2024-02-14T18:53:14.165Z,101764.94
2024-02-14T18:55:44.282Z,101762.31
2024-02-14T18:58:14.712Z,101769.16
2024-02-14T19:00:46.061Z,101771.78
2024-02-14T19:03:16.478Z,101764.81
2024-02-14T19:05:47.038Z,101770.06
2024-02-14T19:08:17.404Z,101770.94
2024-02-14T19:10:47.709Z,101762.22
2024-02-14T19:13:18.379Z,101761.31
2024-02-14T19:15:48.406Z,101758.66
2024-02-14T19:18:19.115Z,101758.66
2024-02-14T19:20:50.885Z,101759.47
2024-02-14T19:23:21.387Z,101762.13
2024-02-14T19:25:54.474Z,101769.03
2024-02-14T19:28:24.613Z,101772.47
2024-02-14T19:30:54.588Z,101763.78
2024-02-14T19:33:24.763Z,101760.31
2024-02-14T19:35:57.704Z,101757.78
2024-02-14T19:38:28.448Z,101769.03
2024-02-14T19:40:58.726Z,101756.78
2024-02-14T19:43:35.237Z,101762.94
2024-02-14T19:46:12.063Z,101769.03
2024-02-14T19:48:42.752Z,101771.66
2024-02-14T19:51:13.144Z,101772.50
2024-02-14T19:53:43.645Z,101772.47
2024-02-14T19:56:13.956Z,101765.56
2024-02-14T19:58:44.400Z,101768.91
2024-02-14T20:01:14.944Z,101763.69
2024-02-14T20:03:47.570Z,101768.09
2024-02-14T20:06:17.794Z,101759.56
2024-02-14T20:08:48.089Z,101768.16
2024-02-14T20:11:18.637Z,101768.16
2024-02-14T20:13:49.233Z,101764.69
2024-02-14T20:16:19.449Z,101765.59
2024-02-14T20:18:50.053Z,101767.22
2024-02-14T20:21:20.466Z,101765.44
2024-02-14T20:23:50.971Z,101762.81
2024-02-14T20:26:21.255Z,101753.31
2024-02-14T20:28:52.718Z,101751.53
2024-02-14T20:31:22.930Z,101749.75
2024-02-14T20:33:54.077Z,101742.81
2024-02-14T20:36:24.200Z,101746.28
2024-02-14T20:38:56.623Z,101747.16
2024-02-14T20:41:31.132Z,101755.84
2024-02-14T20:44:01.514Z,101750.69
2024-02-14T20:46:33.167Z,101731.53
2024-02-14T20:49:05.918Z,101747.16
2024-02-14T20:51:36.673Z,101738.38
2024-02-14T20:54:07.159Z,101736.69
2024-02-14T20:56:37.333Z,101738.47
2024-02-14T20:59:15.727Z,101730.69
2024-02-14T21:01:46.968Z,101735.03
2024-02-14T21:04:17.472Z,101734.22
2024-02-14T21:06:47.570Z,101733.44
2024-02-14T21:09:17.933Z,101736.00
2024-02-14T21:11:48.128Z,101734.22
2024-02-14T21:14:18.654Z,101733.38
2024-02-14T21:16:48.784Z,101736.78
2024-02-14T21:19:19.137Z,101736.75
2024-02-14T21:21:49.279Z,101731.53
2024-02-14T21:24:19.781Z,101724.53
2024-02-14T21:26:51.295Z,101725.50
2024-02-14T21:29:23.904Z,101726.47
2024-02-14T21:31:55.033Z,101720.28
2024-02-14T21:34:25.893Z,101715.91
2024-02-14T21:36:57.861Z,101715.91
2024-02-14T21:39:28.601Z,101707.25
2024-02-14T21:41:59.109Z,101712.47
2024-02-14T21:44:31.881Z,101706.38
2024-02-14T21:47:02.129Z,101713.31
2024-02-14T21:49:33.776Z,101707.22
2024-02-14T21:52:07.976Z,101712.44
2024-02-14T21:54:38.573Z,101712.41
2024-02-14T21:57:08.969Z,101711.63
2024-02-14T21:59:39.411Z,101705.59
2024-02-14T22:02:09.575Z,101711.66
2024-02-14T22:04:40.104Z,101714.25
2024-02-14T22:07:10.482Z,101704.66
2024-02-14T22:09:40.804Z,101691.66
2024-02-14T22:12:12.383Z,101694.22
2024-02-14T22:14:43.310Z,101696.91
2024-02-14T22:17:14.993Z,101699.53
2024-02-14T22:19:45.782Z,101692.59
2024-02-14T22:22:19.384Z,101703.00
2024-02-14T22:24:49.824Z,101687.25
2024-02-14T22:27:20.522Z,101705.59
2024-02-14T22:29:52.908Z,101718.66
2024-02-14T22:32:22.940Z,101718.59
2024-02-14T22:34:53.571Z,101706.50
2024-02-14T22:37:23.744Z,101702.16
2024-02-14T22:39:54.206Z,101701.31
2024-02-14T22:42:24.473Z,101697.81
2024-02-14T22:44:55.652Z,101693.44
2024-02-14T22:47:26.930Z,101689.13
2024-02-14T22:49:57.577Z,101687.34
2024-02-14T22:52:27.861Z,101689.97
2024-02-14T22:54:58.309Z,101688.28
2024-02-14T22:57:29.227Z,101687.34
2024-02-14T23:00:00.615Z,101683.94
2024-02-14T23:02:30.895Z,101689.19
2024-02-14T23:05:01.349Z,101690.03
2024-02-14T23:07:31.581Z,101690.06
2024-02-14T23:10:03.315Z,101682.28
2024-02-14T23:12:33.613Z,101687.47
2024-02-14T23:15:06.855Z,101680.59
2024-02-14T23:17:37.461Z,101677.84
2024-02-14T23:20:09.169Z,101683.94
2024-02-14T23:22:39.569Z,101684.81
2024-02-14T23:25:11.579Z,101677.84
2024-02-14T23:27:46.503Z,101673.53
2024-02-14T23:30:17.577Z,101680.41
2024-02-14T23:32:49.002Z,101678.75
2024-02-14T23:35:19.550Z,101671.88
2024-02-14T23:37:49.650Z,101681.38
2024-02-14T23:40:20.806Z,101678.75
2024-02-14T23:42:51.087Z,101682.22
2024-02-14T23:45:21.658Z,101682.28
2024-02-14T23:47:52.268Z,101682.28
2024-02-14T23:50:22.666Z,101681.38
2024-02-14T23:52:52.931Z,101674.44
2024-02-14T23:55:23.948Z,101683.91
2024-02-14T23:57:54.364Z,101679.63
